Time;durP1;ratioP1;P1;durP2;ratioP2;P2;SDS_P1;SDS_P2;PMS_P1;PMS_P2;Temp;Humidity;BMP_temperature;BMP_pressure;BME280_temperature;BME280_humidity;BME280_pressure;Samples;Min_cycle;Max_cycle;Signal;HPM_P1;HPM_P2
2022/06/30 00:01:54;;;;;;;;;0.00;0.00;;;;;20.25;60.13;100491.25;6255096;22;45393;-80
2022/06/30 00:04:19;;;;;;;;;1.00;1.00;;;;;20.11;60.54;100470.94;6228962;22;44768;-82
2022/06/30 00:06:45;;;;;;;;;0.00;0.00;;;;;20.07;60.79;100463.84;6256450;22;46068;-80
2022/06/30 00:09:10;;;;;;;;;0.00;0.00;;;;;19.97;60.93;100473.16;6257064;22;45665;-80
2022/06/30 00:11:36;;;;;;;;;0.33;0.33;;;;;19.84;61.98;100485.25;6256603;22;45328;-80
2022/06/30 00:14:02;;;;;;;;;0.00;0.00;;;;;19.77;62.04;100493.53;6228542;22;45384;-80
2022/06/30 00:16:27;;;;;;;;;1.00;1.00;;;;;19.72;61.89;100503.53;6255377;22;45235;-81
2022/06/30 00:18:53;;;;;;;;;2.00;2.00;;;;;19.69;62.16;100500.91;6257136;22;45355;-80
2022/06/30 00:21:18;;;;;;;;;1.00;1.00;;;;;19.62;63.36;100484.94;6229012;22;45532;-80
2022/06/30 00:23:44;;;;;;;;;1.00;1.00;;;;;19.56;62.61;100491.38;6230415;22;45297;-81
2022/06/30 00:26:12;;;;;;;;;2.67;1.00;;;;;19.59;62.68;100485.88;6257849;22;44937;-81
2022/06/30 00:28:38;;;;;;;;;1.33;1.33;;;;;19.54;63.28;100493.22;6229343;22;45422;-81
2022/06/30 00:31:03;;;;;;;;;1.00;1.00;;;;;19.53;63.19;100484.25;6257767;22;45370;-81
2022/06/30 00:33:29;;;;;;;;;1.00;1.00;;;;;19.49;63.23;100487.97;6258473;22;45234;-81
2022/06/30 00:35:55;;;;;;;;;0.00;0.00;;;;;19.42;63.62;100497.13;6228438;22;47830;-81
2022/06/30 00:38:21;;;;;;;;;2.00;2.00;;;;;19.31;64.09;100493.81;6229274;22;45432;-81
2022/06/30 00:40:50;;;;;;;;;1.33;1.33;;;;;19.27;64.66;100498.44;6230374;22;45460;-81
2022/06/30 00:43:15;;;;;;;;;1.00;1.00;;;;;19.29;64.83;100501.06;6257687;22;45399;-81
2022/06/30 00:45:44;;;;;;;;;2.00;2.00;;;;;19.13;65.57;100495.19;6229617;22;46666;-80
2022/06/30 00:48:11;;;;;;;;;1.00;1.00;;;;;19.13;66.66;100498.78;6230238;22;45453;-80
2022/06/30 00:50:39;;;;;;;;;1.00;1.00;;;;;19.03;65.83;100501.72;6228888;22;45267;-80
2022/06/30 00:53:07;;;;;;;;;2.00;2.00;;;;;19.01;65.72;100506.25;6229683;22;45318;-80
2022/06/30 00:55:34;;;;;;;;;1.67;1.33;;;;;19.01;66.43;100495.47;6255949;22;46090;-79
2022/06/30 00:58:41;;;;;;;;;2.00;2.00;;;;;19.08;66.45;100497.13;6229088;22;44773;-79
2022/06/30 01:01:08;;;;;;;;;1.67;1.67;;;;;19.03;66.64;100480.16;6256060;22;45276;-80
2022/06/30 01:03:34;;;;;;;;;2.00;2.00;;;;;18.94;66.83;100481.28;6229779;22;45383;-81
2022/06/30 01:06:01;;;;;;;;;1.00;1.00;;;;;18.96;67.13;100482.13;6205183;22;47159;-80
2022/06/30 01:08:29;;;;;;;;;1.00;1.00;;;;;18.96;66.90;100492.91;6228986;22;45889;-79
2022/06/30 01:14:18;;;;;;;;;2.00;2.00;;;;;18.93;67.30;100488.47;6258184;22;45468;-81
2022/06/30 01:16:44;;;;;;;;;1.67;1.67;;;;;18.87;67.63;100474.28;6230969;22;45357;-82
2022/06/30 01:19:11;;;;;;;;;1.00;1.00;;;;;18.87;67.46;100485.94;6229592;22;45452;-82
2022/06/30 01:21:37;;;;;;;;;2.00;2.00;;;;;18.79;67.67;100488.81;6230436;22;45252;-82
2022/06/30 01:24:02;;;;;;;;;2.67;2.67;;;;;18.81;68.04;100493.31;6229392;22;45317;-82
2022/06/30 01:26:28;;;;;;;;;2.00;2.00;;;;;18.82;68.31;100495.94;6230530;22;47506;-81
2022/06/30 01:28:55;;;;;;;;;3.00;3.00;;;;;18.79;67.87;100493.31;6228430;22;45276;-82
2022/06/30 01:31:22;;;;;;;;;1.33;1.33;;;;;18.70;68.64;100480.03;6253851;22;45366;-82
2022/06/30 01:33:49;;;;;;;;;2.00;2.00;;;;;18.70;68.71;100496.19;6255889;22;45706;-82
2022/06/30 01:36:15;;;;;;;;;2.00;2.00;;;;;18.62;69.01;100488.28;6255676;22;46495;-82
2022/06/30 01:38:41;;;;;;;;;2.00;2.00;;;;;18.66;69.03;100489.09;6256488;22;44956;-82
2022/06/30 01:41:08;;;;;;;;;3.33;1.67;;;;;18.63;69.26;100478.41;6229261;22;44798;-82
2022/06/30 01:43:33;;;;;;;;;1.00;1.00;;;;;18.58;70.55;100478.50;6257466;22;45223;-82
2022/06/30 01:45:59;;;;;;;;;1.67;1.67;;;;;18.55;69.19;100501.00;6254833;22;46078;-82
2022/06/30 01:48:24;;;;;;;;;2.00;1.00;;;;;18.53;69.43;100494.78;6228407;22;45919;-82
2022/06/30 01:50:51;;;;;;;;;4.33;3.67;;;;;18.49;70.47;100487.69;6231394;22;45260;-82
2022/06/30 01:53:16;;;;;;;;;3.67;2.00;;;;;18.52;69.91;100506.47;6230115;22;44820;-82
2022/06/30 01:55:42;;;;;;;;;2.00;2.00;;;;;18.49;70.15;100509.22;6230197;22;46843;-83
2022/06/30 01:58:10;;;;;;;;;3.00;3.00;;;;;18.48;70.17;100523.63;6258642;22;45468;-81
2022/06/30 02:00:51;;;;;;;;;4.00;1.67;;;;;18.49;70.48;100529.91;6259687;22;45886;-82
2022/06/30 02:03:17;;;;;;;;;2.00;2.00;;;;;18.44;70.98;100521.94;6258146;22;45471;-80
2022/06/30 02:05:43;;;;;;;;;2.67;2.00;;;;;18.39;71.53;100526.50;6229969;22;45465;-81
2022/06/30 02:08:08;;;;;;;;;3.33;3.33;;;;;18.36;73.02;100521.19;6230307;22;45479;-80
2022/06/30 02:10:34;;;;;;;;;2.00;2.00;;;;;18.23;71.30;100506.22;6230447;22;45355;-81
2022/06/30 02:12:59;;;;;;;;;2.67;2.67;;;;;18.15;73.33;100498.31;6231235;22;45481;-80
2022/06/30 02:18:46;;;;;;;;;3.67;3.67;;;;;18.11;73.13;100494.78;6257513;22;45310;-81
2022/06/30 02:21:15;;;;;;;;;1.33;1.33;;;;;18.12;72.52;100475.03;6257170;22;45184;-81
2022/06/30 02:23:40;;;;;;;;;1.67;1.67;;;;;18.14;72.90;100478.59;6229996;22;45813;-81
2022/06/30 02:26:05;;;;;;;;;2.00;2.00;;;;;18.15;72.73;100483.03;6229503;22;46942;-81
2022/06/30 02:28:31;;;;;;;;;2.00;2.00;;;;;18.17;71.72;100472.25;6257660;22;45326;-81
2022/06/30 02:30:56;;;;;;;;;5.33;4.00;;;;;18.14;72.98;100470.50;6257130;22;44893;-80
2022/06/30 02:33:22;;;;;;;;;3.67;2.00;;;;;18.04;73.28;100474.31;6228633;22;44848;-81
2022/06/30 02:35:48;;;;;;;;;3.00;3.00;;;;;18.09;73.67;100474.22;6226904;22;46760;-79
2022/06/30 02:38:14;;;;;;;;;1.67;1.67;;;;;18.08;73.19;100476.03;6227958;22;45323;-81
2022/06/30 02:40:39;;;;;;;;;4.67;3.00;;;;;18.09;73.67;100483.16;6256128;22;45559;-81
2022/06/30 02:43:07;;;;;;;;;3.33;3.33;;;;;18.04;73.95;100482.41;6256437;22;44822;-81
2022/06/30 02:45:33;;;;;;;;;3.00;1.00;;;;;18.05;73.71;100480.56;6256872;22;45432;-81
2022/06/30 02:47:59;;;;;;;;;4.00;3.00;;;;;18.08;73.89;100470.66;6228375;22;45328;-80
2022/06/30 02:50:25;;;;;;;;;2.00;2.00;;;;;18.09;73.51;100469.72;6227937;22;45347;-80
2022/06/30 02:52:50;;;;;;;;;3.67;2.67;;;;;18.11;73.17;100470.56;6228533;22;45585;-80
2022/06/30 02:55:19;;;;;;;;;3.33;2.00;;;;;18.16;73.51;100484.81;6256425;22;45224;-81
2022/06/30 02:57:44;;;;;;;;;2.33;2.33;;;;;18.25;73.40;100489.13;6228819;22;45295;-81
2022/06/30 03:00:11;;;;;;;;;3.00;2.33;;;;;18.29;73.07;100506.97;6257455;22;45380;-81
2022/06/30 03:02:37;;;;;;;;;2.67;2.67;;;;;18.27;72.93;100489.09;6256461;22;45365;-81
2022/06/30 03:05:03;;;;;;;;;2.67;2.67;;;;;18.28;72.72;100490.84;6255311;22;44925;-81
2022/06/30 03:07:29;;;;;;;;;3.67;2.67;;;;;18.29;72.87;100503.41;6229190;22;45347;-82
2022/06/30 03:09:54;;;;;;;;;2.67;2.67;;;;;18.26;72.71;100490.00;6230022;22;45001;-82
2022/06/30 03:12:21;;;;;;;;;2.33;2.33;;;;;18.36;72.26;100496.94;6257065;22;44774;-80
2022/06/30 03:14:47;;;;;;;;;2.67;2.67;;;;;18.39;71.93;100500.47;6228738;22;47365;-80
2022/06/30 03:17:13;;;;;;;;;2.33;2.33;;;;;18.38;72.03;100489.75;6255798;22;45232;-79
2022/06/30 03:19:45;;;;;;;;;3.00;3.00;;;;;18.43;71.58;100485.13;6254876;22;45309;-79
2022/06/30 03:22:11;;;;;;;;;3.00;3.00;;;;;18.44;71.66;100499.47;6254947;22;45339;-80
2022/06/30 03:24:36;;;;;;;;;4.00;3.00;;;;;18.47;71.41;100503.00;6228526;22;47015;-80
2022/06/30 03:27:02;;;;;;;;;3.00;3.00;;;;;18.44;71.32;100502.16;6255079;22;45353;-80
2022/06/30 03:29:27;;;;;;;;;3.67;3.67;;;;;18.49;71.12;100511.91;6227910;22;45280;-81
2022/06/30 03:31:53;;;;;;;;;3.00;3.00;;;;;18.49;71.23;100505.66;6256663;22;45227;-80
2022/06/30 03:34:18;;;;;;;;;5.00;3.33;;;;;18.49;71.27;100509.22;6255904;22;45354;-81
2022/06/30 03:36:43;;;;;;;;;2.67;2.67;;;;;18.50;70.97;100510.09;6256521;22;45368;-81
2022/06/30 03:39:09;;;;;;;;;2.00;2.00;;;;;18.51;70.74;100490.34;6229802;22;45233;-81
2022/06/30 03:41:34;;;;;;;;;3.00;3.00;;;;;18.52;70.42;100482.25;6230265;22;44713;-82
2022/06/30 03:44:00;;;;;;;;;6.67;4.67;;;;;18.42;70.39;100493.25;6229836;22;47043;-80
2022/06/30 03:46:26;;;;;;;;;2.00;2.00;;;;;18.34;70.52;100501.47;6229721;22;45342;-81
2022/06/30 03:48:51;;;;;;;;;3.00;3.00;;;;;18.38;71.03;100516.69;6257330;22;45498;-80
2022/06/30 03:51:17;;;;;;;;;5.00;3.33;;;;;18.31;71.58;100512.31;6258252;22;44808;-80
2022/06/30 03:53:42;;;;;;;;;2.00;2.00;;;;;18.28;71.21;100515.06;6256461;22;45358;-80
2022/06/30 03:56:08;;;;;;;;;2.00;2.00;;;;;18.30;71.81;100513.22;6229574;22;45351;-81
2022/06/30 03:58:34;;;;;;;;;2.00;2.00;;;;;18.29;71.38;100508.78;6280986;22;45338;-80
2022/06/30 04:01:00;;;;;;;;;4.33;3.33;;;;;18.28;71.35;100525.84;6229420;22;45446;-79
2022/06/30 04:03:26;;;;;;;;;2.67;2.67;;;;;18.25;71.02;100526.81;6250837;22;46932;-80
2022/06/30 04:05:51;;;;;;;;;3.00;3.00;;;;;18.20;71.57;100523.34;6228203;22;44675;-79
2022/06/30 04:08:17;;;;;;;;;2.00;2.00;;;;;18.26;71.40;100541.13;6229110;22;45680;-81
2022/06/30 04:10:42;;;;;;;;;2.33;2.33;;;;;18.19;71.49;100522.41;6230084;22;45337;-81
2022/06/30 04:13:09;;;;;;;;;4.33;4.33;;;;;18.23;71.43;100533.16;6231547;22;46790;-81
2022/06/30 04:15:36;;;;;;;;;4.00;4.00;;;;;18.22;72.73;100525.97;6230810;22;45308;-81
2022/06/30 04:18:01;;;;;;;;;5.00;4.00;;;;;18.19;72.66;100526.94;6231539;22;45485;-82
2022/06/30 04:20:27;;;;;;;;;4.67;4.67;;;;;18.06;73.43;100504.78;6258326;22;45330;-81
2022/06/30 04:22:53;;;;;;;;;2.67;2.67;;;;;17.97;74.51;100524.66;6259839;22;46110;-81
2022/06/30 04:25:21;;;;;;;;;3.00;3.00;;;;;17.90;74.64;100514.97;6257898;22;44783;-80
2022/06/30 04:28:05;;;;;;;;;5.67;4.67;;;;;17.89;75.96;100505.09;6229712;22;44907;-81
2022/06/30 04:33:15;;;;;;;;;3.67;3.67;;;;;17.90;76.12;100520.34;6259142;22;45348;-80
2022/06/30 04:35:40;;;;;;;;;3.00;3.00;;;;;17.93;76.40;100524.75;6256837;22;45431;-81
2022/06/30 04:38:09;;;;;;;;;5.33;5.33;;;;;17.98;77.35;100533.66;6256947;22;45334;-80
2022/06/30 04:43:18;;;;;;;;;2.00;2.00;;;;;18.07;77.54;100538.81;6256982;22;45638;-81
2022/06/30 04:45:44;;;;;;;;;4.33;4.33;;;;;18.05;77.90;100532.59;6229554;22;45376;-82
2022/06/30 04:48:12;;;;;;;;;5.33;4.33;;;;;18.04;78.22;100538.91;6230876;22;45302;-81
2022/06/30 04:50:44;;;;;;;;;4.33;3.00;;;;;18.02;79.12;100535.34;6258819;22;45319;-81
2022/06/30 04:53:12;;;;;;;;;4.67;3.00;;;;;18.08;78.49;100532.53;6257581;22;45393;-81
2022/06/30 04:55:37;;;;;;;;;8.00;6.67;;;;;18.06;79.63;100514.66;6257828;22;45665;-81
2022/06/30 04:58:04;;;;;;;;;2.33;2.33;;;;;18.09;78.52;100514.59;6257837;22;45494;-81
2022/06/30 05:00:30;;;;;;;;;5.67;5.00;;;;;18.13;78.89;100516.28;6258205;22;45448;-81
2022/06/30 05:02:56;;;;;;;;;3.33;3.00;;;;;18.09;79.47;100506.50;6230180;22;46282;-81
2022/06/30 05:05:21;;;;;;;;;3.33;3.00;;;;;18.14;79.39;100504.63;6257243;22;45406;-80
2022/06/30 05:07:47;;;;;;;;;4.00;3.67;;;;;18.15;79.41;100506.38;6255031;22;45620;-80
2022/06/30 05:10:12;;;;;;;;;5.33;4.00;;;;;18.06;79.33;100488.63;6228582;22;45329;-79
2022/06/30 05:12:38;;;;;;;;;4.67;4.67;;;;;18.11;79.45;100494.78;6256230;22;45303;-81
2022/06/30 05:15:06;;;;;;;;;3.67;3.67;;;;;18.14;80.15;100500.13;6256513;22;45298;-81
2022/06/30 05:17:38;;;;;;;;;4.33;3.00;;;;;18.12;79.60;100498.38;6229243;22;45383;-80
2022/06/30 05:20:05;;;;;;;;;3.33;3.33;;;;;18.13;79.73;100492.94;6256427;22;45047;-81
2022/06/30 05:22:31;;;;;;;;;3.67;3.67;;;;;18.14;79.73;100492.03;6257652;22;46839;-81
2022/06/30 05:27:44;;;;;;;;;5.67;5.67;;;;;18.21;79.01;100492.78;6257607;22;45377;-81
2022/06/30 05:30:10;;;;;;;;;5.33;5.00;;;;;18.19;79.49;100495.50;6257571;22;45417;-81
2022/06/30 05:36:06;;;;;;;;;7.33;7.00;;;;;18.23;78.79;100509.78;6255302;22;44820;-80
2022/06/30 05:38:33;;;;;;;;;4.00;3.67;;;;;18.21;79.43;100514.31;6278983;22;45307;-81
2022/06/30 05:40:59;;;;;;;;;3.67;3.67;;;;;18.19;78.85;100510.78;6229232;22;45323;-81
2022/06/30 05:43:24;;;;;;;;;8.00;5.00;;;;;18.13;78.72;100509.09;6255248;22;45503;-80
2022/06/30 05:45:54;;;;;;;;;4.00;4.00;;;;;18.22;79.37;100515.19;6258427;22;45328;-81
2022/06/30 05:48:23;;;;;;;;;6.00;5.33;;;;;18.21;78.96;100518.84;6256978;22;45382;-81
2022/06/30 05:50:49;;;;;;;;;3.67;3.00;;;;;18.21;79.32;100518.84;6257108;22;45347;-81
2022/06/30 05:53:16;;;;;;;;;2.00;2.00;;;;;18.15;78.70;100527.91;6229656;22;45468;-82
2022/06/30 05:55:45;;;;;;;;;4.00;4.00;;;;;18.05;79.72;100521.81;6256998;22;45250;-81
2022/06/30 05:58:17;;;;;;;;;5.00;5.00;;;;;18.05;80.94;100529.91;6230746;22;45362;-82
2022/06/30 06:00:42;;;;;;;;;9.67;4.67;;;;;17.96;81.84;100525.59;6259555;22;44746;-82
2022/06/30 06:03:08;;;;;;;;;4.67;4.33;;;;;17.92;80.09;100528.38;6230438;22;47007;-81
2022/06/30 06:08:55;;;;;;;;;5.33;4.00;;;;;17.87;82.64;100535.66;6256977;22;45350;-81
2022/06/30 06:11:21;;;;;;;;;5.00;5.00;;;;;17.90;84.29;100541.88;6230793;22;44841;-81
2022/06/30 06:13:58;;;;;;;;;4.00;4.00;;;;;17.88;85.63;100526.69;6256225;22;46137;-81
2022/06/30 06:16:24;;;;;;;;;5.33;5.33;;;;;17.95;84.65;100544.47;6257885;22;45325;-80
2022/06/30 06:18:50;;;;;;;;;5.67;4.00;;;;;18.02;84.47;100554.19;6206660;22;45312;-81
2022/06/30 06:21:17;;;;;;;;;4.00;4.00;;;;;18.06;85.10;100546.97;6234127;22;44806;-80
2022/06/30 06:23:43;;;;;;;;;5.00;4.00;;;;;18.13;85.53;100543.22;6233188;22;47024;-82
2022/06/30 06:26:08;;;;;;;;;4.00;4.00;;;;;18.21;84.65;100533.16;6258916;22;45679;-79
2022/06/30 06:31:59;;;;;;;;;4.67;4.67;;;;;18.46;84.75;100533.56;6261159;22;44819;-82
2022/06/30 06:34:24;;;;;;;;;5.00;5.00;;;;;18.53;84.32;100535.16;6258620;22;46224;-81
2022/06/30 06:36:50;;;;;;;;;4.00;4.00;;;;;18.61;84.58;100545.78;6231805;22;44905;-82
2022/06/30 06:39:16;;;;;;;;;7.00;6.00;;;;;18.58;84.83;100545.84;6259998;22;45313;-82
2022/06/30 06:41:50;;;;;;;;;5.00;5.00;;;;;18.56;85.24;100540.50;6232382;22;44875;-82
2022/06/30 06:44:18;;;;;;;;;5.00;4.00;;;;;18.59;85.01;100547.63;6232529;22;46982;-81
2022/06/30 06:46:56;;;;;;;;;9.00;7.67;;;;;18.44;84.18;100532.69;6232858;22;45185;-81
2022/06/30 06:49:22;;;;;;;;;5.00;5.00;;;;;18.36;83.40;100513.09;6233426;22;44862;-81
2022/06/30 06:51:47;;;;;;;;;4.00;4.00;;;;;18.51;83.56;100539.72;6232706;22;45465;-82
2022/06/30 06:54:16;;;;;;;;;3.00;3.00;;;;;18.39;84.24;100513.94;6260691;22;45683;-81
2022/06/30 06:56:47;;;;;;;;;5.33;4.67;;;;;18.35;83.62;100520.28;6260663;22;45295;-83
2022/06/30 06:59:13;;;;;;;;;4.33;3.00;;;;;18.48;83.79;100550.56;6234001;22;45436;-83
2022/06/30 07:01:41;;;;;;;;;5.00;5.00;;;;;18.46;83.09;100548.78;6234418;22;45482;-82
2022/06/30 07:04:07;;;;;;;;;6.33;5.67;;;;;18.73;83.05;100585.03;6209372;22;46220;-81
2022/06/30 07:06:43;;;;;;;;;6.00;6.00;;;;;18.71;82.61;100579.66;6237667;22;45284;-82
2022/06/30 07:09:09;;;;;;;;;3.00;2.00;;;;;18.74;83.18;100586.78;6205043;22;45831;-83
2022/06/30 07:11:34;;;;;;;;;5.00;5.00;;;;;18.52;84.21;100551.34;6194207;22;44900;-81
2022/06/30 07:17:26;;;;;;;;;4.67;4.67;;;;;18.55;85.85;100583.63;6197837;22;44695;-82
2022/06/30 07:19:57;;;;;;;;;6.33;5.33;;;;;18.65;86.01;100600.47;6172155;22;45437;-82
2022/06/30 07:22:29;;;;;;;;;4.00;4.00;;;;;18.49;88.19;100572.97;6173801;22;44954;-82
2022/06/30 07:24:56;;;;;;;;;4.00;4.00;;;;;18.34;88.40;100558.00;6198025;22;45120;-82
2022/06/30 07:27:42;;;;;;;;;6.00;6.00;;;;;18.45;89.58;100582.94;6177120;22;45655;-81
2022/06/30 07:30:24;;;;;;;;;6.00;6.00;;;;;18.45;89.58;100582.94;6199224;22;44752;-82
2022/06/30 07:33:08;;;;;;;;;5.67;5.67;;;;;18.53;90.90;100589.03;6174340;23;44770;-83
2022/06/30 07:35:53;;;;;;;;;4.33;4.33;;;;;18.43;90.58;100568.59;6171910;22;45479;-84
2022/06/30 07:38:24;;;;;;;;;8.00;8.00;;;;;18.55;91.41;100594.41;6174953;23;45452;-83
2022/06/30 07:40:51;;;;;;;;;5.00;5.00;;;;;18.55;91.74;100589.88;6193280;22;45369;-82
2022/06/30 07:43:19;;;;;;;;;4.67;4.67;;;;;18.57;93.94;100582.66;6173932;23;44917;-83
2022/06/30 07:45:58;;;;;;;;;6.67;5.00;;;;;18.53;93.36;100591.72;6198872;23;45296;-82
2022/06/30 07:48:24;;;;;;;;;5.00;5.00;;;;;18.51;93.70;100593.56;6176096;22;44781;-82
2022/06/30 07:50:54;;;;;;;;;4.00;4.00;;;;;18.39;94.04;100567.78;6230952;22;45284;-83
2022/06/30 07:56:07;;;;;;;;;5.67;5.67;;;;;18.56;94.41;100575.53;6164857;23;45534;-83
2022/06/30 08:01:24;;;;;;;;;7.00;5.00;;;;;18.46;94.00;100551.50;6312725;22;44954;-84
2022/06/30 08:04:03;;;;;;;;;;;;;;;;;;;;;
2022/06/30 08:17:54;;;;;;;;;5.00;3.33;;;;;18.27;95.73;100569.84;6309364;22;45180;-82
2022/06/30 08:20:35;;;;;;;;;3.00;3.00;;;;;18.15;94.08;100558.41;6296474;22;45234;-82
2022/06/30 08:29:16;;;;;;;;;;;;;;;;;;;;;
2022/06/30 08:31:55;;;;;;;;;4.00;4.00;;;;;18.18;94.78;100531.44;6324014;22;45308;-83
2022/06/30 08:34:30;;;;;;;;;;;;;;;;;;;;;
2022/06/30 08:36:57;;;;;;;;;4.33;4.33;;;;;18.33;96.02;100562.53;6324911;22;65456;-82
2022/06/30 08:42:19;;;;;;;;;5.33;4.33;;;;;18.33;96.10;100573.28;6324010;22;45262;-83
2022/06/30 08:45:17;;;;;;;;;5.00;4.00;;;;;18.33;96.09;100569.72;6324488;22;45345;-83
2022/06/30 08:48:01;;;;;;;;;3.67;3.00;;;;;18.07;95.90;100522.69;6322942;22;45461;-83
2022/06/30 08:50:28;;;;;;;;;5.67;5.67;;;;;18.42;96.14;100561.47;6323445;22;45559;-81
2022/06/30 08:53:23;;;;;;;;;4.00;4.00;;;;;18.40;94.79;100520.22;6297967;22;44722;-82
2022/06/30 08:56:09;;;;;;;;;4.67;3.00;;;;;18.56;91.13;100527.03;6259969;22;45588;-82
2022/06/30 08:58:56;;;;;;;;;3.00;3.00;;;;;18.77;90.25;100551.72;6262471;22;44918;-82
2022/06/30 09:01:25;;;;;;;;;4.33;4.33;;;;;18.74;89.40;100541.91;6251478;22;44981;-83
2022/06/30 09:06:26;;;;;;;;;3.00;1.67;;;;;18.56;88.21;100532.44;6323104;22;44899;-83
2022/06/30 09:09:22;;;;;;;;;1.67;1.67;;;;;18.47;87.87;100538.00;6322217;22;45270;-80
2022/06/30 09:11:57;;;;;;;;;3.00;3.00;;;;;18.15;89.69;100490.22;6323583;22;45380;-81
2022/06/30 09:14:42;;;;;;;;;2.00;2.00;;;;;18.19;88.84;100510.78;6321404;22;45407;-81
2022/06/30 09:17:17;;;;;;;;;3.00;3.00;;;;;18.23;88.84;100527.75;6321552;22;45382;-80
2022/06/30 09:20:05;;;;;;;;;2.00;2.00;;;;;17.93;88.74;100487.09;6321753;22;45428;-79
2022/06/30 09:22:36;;;;;;;;;3.00;3.00;;;;;18.15;90.13;100541.38;6319879;22;45450;-81
2022/06/30 09:28:06;;;;;;;;;1.33;1.33;;;;;18.10;90.63;100533.41;6308769;22;45488;-79
2022/06/30 09:30:37;;;;;;;;;3.00;3.00;;;;;18.18;90.66;100561.03;6292188;22;45232;-80
2022/06/30 09:33:16;;;;;;;;;4.00;3.00;;;;;17.99;90.73;100520.13;6293748;22;46952;-81
2022/06/30 09:35:56;;;;;;;;;;;;;;;;;;;;;
2022/06/30 09:38:25;;;;;;;;;7.00;5.33;;;;;18.26;92.38;100573.44;6320765;22;68061;-80
2022/06/30 09:45:09;;;;;;;;;3.00;3.00;;;;;18.16;94.02;100575.47;6322008;22;46215;-79
2022/06/30 09:47:54;;;;;;;;;3.00;3.00;;;;;18.02;94.64;100561.34;6320480;22;45409;-80
2022/06/30 09:50:30;;;;;;;;;5.00;3.00;;;;;17.87;94.84;100541.03;6271084;22;44872;-80
2022/06/30 09:53:17;;;;;;;;;3.00;3.00;;;;;18.08;94.66;100572.03;6321035;22;45320;-80
2022/06/30 09:55:52;;;;;;;;;3.67;3.67;;;;;18.12;96.24;100569.25;6268996;22;46739;-80
2022/06/30 09:58:49;;;;;;;;;4.67;3.67;;;;;18.28;95.67;100580.59;6295674;22;44795;-80
2022/06/30 10:02:30;;;;;;;;;;;;;;;;;;;;;
2022/06/30 10:14:08;;;;;;;;;3.33;2.00;;;;;18.35;94.47;100575.97;6320102;22;44798;-81
2022/06/30 10:16:45;;;;;;;;;5.00;5.00;;;;;18.27;94.89;100567.16;6293291;22;44895;-80
2022/06/30 10:19:16;;;;;;;;;5.00;5.00;;;;;18.19;94.95;100565.50;6316499;22;45208;-80
2022/06/30 10:35:54;;;;;;;;;7.67;7.00;;;;;18.38;97.25;100609.09;6324279;22;45298;-80
2022/06/30 10:38:56;;;;;;;;;5.67;5.67;;;;;18.20;98.51;100582.56;6291758;22;45467;-81
2022/06/30 10:41:28;;;;;;;;;6.00;5.00;;;;;18.22;98.51;100594.19;6202466;22;44852;-81
2022/06/30 10:44:05;;;;;;;;;3.00;3.00;;;;;18.34;96.77;100611.88;6198891;22;47769;-81
2022/06/30 10:56:52;;;;;;;;;7.33;7.33;;;;;18.41;98.36;100636.88;6224034;22;45399;-79
2022/06/30 10:59:45;;;;;;;;;8.00;7.67;;;;;18.48;97.76;100642.13;6197642;22;45647;-79
2022/06/30 11:02:26;;;;;;;;;11.00;11.00;;;;;18.55;98.00;100646.44;6196660;22;45388;-81
2022/06/30 11:05:23;;;;;;;;;13.33;13.33;;;;;18.61;97.51;100637.38;6227608;22;45779;-81
2022/06/30 11:07:48;;;;;;;;;13.33;10.33;;;;;18.76;97.79;100644.22;6176001;22;46915;-80
2022/06/30 11:10:29;;;;;;;;;6.33;6.33;;;;;18.94;96.83;100642.97;6218242;22;44790;-80
2022/06/30 11:12:58;;;;;;;;;9.00;7.33;;;;;19.03;96.53;100648.19;6290490;22;44707;-80
2022/06/30 11:15:51;;;;;;;;;9.00;9.00;;;;;19.15;96.47;100639.81;6263999;22;45695;-80
2022/06/30 11:18:25;;;;;;;;;5.00;5.00;;;;;19.25;95.41;100637.78;6238599;22;46810;-81
2022/06/30 11:20:58;;;;;;;;;4.00;3.33;;;;;19.24;94.31;100632.41;6286152;22;45274;-80
2022/06/30 11:23:41;;;;;;;;;5.33;5.33;;;;;19.11;93.47;100623.75;6257822;22;45346;-79
2022/06/30 11:29:23;;;;;;;;;4.00;4.00;;;;;19.14;92.45;100600.28;6287009;22;45672;-79
2022/06/30 11:35:23;;;;;;;;;4.33;4.33;;;;;18.95;92.01;100577.38;6288625;22;45184;-80
2022/06/30 11:37:53;;;;;;;;;3.33;3.33;;;;;18.95;92.26;100599.81;6285314;22;44934;-79
2022/06/30 11:40:28;;;;;;;;;3.00;3.00;;;;;19.11;93.30;100623.75;6259580;22;46733;-79
2022/06/30 11:42:54;;;;;;;;;3.00;3.00;;;;;19.04;92.25;100616.72;6263144;22;45790;-78
2022/06/30 11:45:23;;;;;;;;;4.00;4.00;;;;;19.21;92.24;100637.88;6260929;22;45458;-79
2022/06/30 11:48:20;;;;;;;;;4.67;4.67;;;;;19.03;92.16;100598.75;6234351;22;44864;-79
2022/06/30 11:50:55;;;;;;;;;2.00;2.00;;;;;19.38;91.31;100636.56;6260063;22;46804;-78
2022/06/30 11:53:21;;;;;;;;;2.33;2.33;;;;;19.30;90.21;100595.41;6260494;22;45348;-80
2022/06/30 11:55:58;;;;;;;;;7.67;6.00;;;;;19.67;89.83;100616.06;6261406;22;45369;-79
2022/06/30 12:01:15;;;;;;;;;2.00;2.00;;;;;20.28;87.26;100596.47;6254100;22;45300;-79
2022/06/30 12:04:17;;;;;;;;;3.33;2.00;;;;;20.41;84.91;100529.50;6260528;22;45326;-82
2022/06/30 12:06:46;;;;;;;;;1.00;1.00;;;;;20.68;81.86;100526.00;6230781;22;45413;-80
2022/06/30 12:09:12;;;;;;;;;2.67;2.67;;;;;20.77;80.34;100505.91;6231176;22;44787;-79
2022/06/30 12:11:38;;;;;;;;;1.50;1.50;;;;;21.33;77.82;100567.16;6230877;22;48119;-80
2022/06/30 12:15:14;;;;;;;;;2.00;0.67;;;;;21.62;75.90;100579.75;6196851;23;45344;-82
2022/06/30 12:18:06;;;;;;;;;3.67;3.00;;;;;21.94;75.80;100592.16;6050667;23;45380;-81
2022/06/30 12:21:12;;;;;;;;;6.67;5.67;;;;;21.96;74.53;100616.47;6027689;23;44921;-81
2022/06/30 12:24:02;;;;;;;;;3.00;2.00;;;;;21.83;74.91;100625.97;6041791;23;46748;-80
2022/06/30 12:27:22;;;;;;;;;3.75;2.50;;;;;21.77;75.75;100646.91;6051577;23;44863;-81
2022/06/30 12:30:01;;;;;;;;;3.00;3.00;;;;;21.47;75.96;100613.63;6051663;23;45341;-80
2022/06/30 12:32:31;;;;;;;;;3.00;2.00;;;;;21.27;75.12;100608.84;6140021;23;45428;-81
2022/06/30 12:35:23;;;;;;;;;1.50;1.50;;;;;21.04;74.94;100614.97;6142173;23;45568;-80
2022/06/30 12:37:53;;;;;;;;;2.00;2.00;;;;;20.84;75.95;100612.88;6143713;23;45400;-81
2022/06/30 12:44:17;;;;;;;;;3.00;1.00;;;;;20.57;76.47;100601.94;6137701;23;45380;-79
2022/06/30 12:47:16;;;;;;;;;2.33;2.33;;;;;20.28;76.80;100588.38;6135300;23;45540;-80
2022/06/30 12:52:43;;;;;;;;;3.00;3.00;;;;;20.38;76.26;100619.63;6126659;23;44880;-80
2022/06/30 12:55:08;;;;;;;;;2.33;1.67;;;;;20.53;75.21;100624.56;6113339;23;44910;-80
2022/06/30 12:57:38;;;;;;;;;3.00;3.00;;;;;20.50;75.25;100597.66;6147013;23;47139;-81
2022/06/30 13:00:20;;;;;;;;;2.00;2.00;;;;;20.63;74.47;100597.31;6139825;23;44736;-80
2022/06/30 13:05:49;;;;;;;;;3.00;3.00;;;;;20.88;74.34;100630.75;6310855;22;44814;-81
2022/06/30 13:08:19;;;;;;;;;2.33;2.33;;;;;20.82;74.64;100601.22;6320630;22;45356;-79
2022/06/30 13:13:43;;;;;;;;;5.00;3.00;;;;;20.84;74.09;100595.78;6321045;22;45390;-80
2022/06/30 13:16:08;;;;;;;;;2.00;2.00;;;;;21.10;73.47;100622.00;6320075;22;45366;-80
2022/06/30 13:18:41;;;;;;;;;0.00;0.00;;;;;21.26;73.91;100615.16;6293822;22;46672;-80
2022/06/30 13:21:08;;;;;;;;;1.33;1.00;;;;;21.41;71.92;100623.72;6319969;22;44811;-81
2022/06/30 13:23:39;;;;;;;;;2.33;2.33;;;;;21.45;71.94;100622.72;6296267;22;45374;-81
2022/06/30 13:29:41;;;;;;;;;2.00;2.00;;;;;21.56;71.83;100617.84;6325057;22;45304;-81
2022/06/30 13:32:13;;;;;;;;;3.00;3.00;;;;;21.73;71.14;100625.38;6229523;22;45388;-80
2022/06/30 13:34:39;;;;;;;;;1.33;1.00;;;;;21.76;71.15;100637.00;6257935;22;45683;-80
2022/06/30 13:37:07;;;;;;;;;3.00;3.00;;;;;21.84;71.37;100644.84;6233117;22;45422;-80
2022/06/30 13:42:49;;;;;;;;;2.00;2.00;;;;;22.22;68.50;100595.69;6164561;23;44884;-79
2022/06/30 13:45:20;;;;;;;;;1.50;1.50;;;;;22.89;67.08;100643.81;6165687;23;45401;-79
2022/06/30 13:47:51;;;;;;;;;1.00;1.00;;;;;23.27;65.09;100642.34;6140152;23;45437;-79
2022/06/30 13:50:38;;;;;;;;;1.50;1.50;;;;;23.58;63.28;100623.91;6165236;23;46897;-81
2022/06/30 13:53:04;;;;;;;;;2.00;2.00;;;;;23.94;63.58;100625.09;6168049;23;45539;-79
2022/06/30 13:55:32;;;;;;;;;1.33;1.33;;;;;24.00;59.48;100599.50;6144650;23;44799;-79
2022/06/30 13:58:28;;;;;;;;;4.00;2.00;;;;;24.42;60.41;100633.84;6143739;23;45634;-81